createdAt,value
2018-09-20T00:01:49.545Z,55.00
2018-09-20T00:04:17.790Z,55.00
2018-09-20T00:06:54.132Z,55.10
2018-09-20T00:09:22.400Z,55.00
2018-09-20T00:11:50.701Z,55.10
2018-09-20T00:14:19.057Z,55.10
2018-09-20T00:16:47.308Z,55.00
2018-09-20T00:19:15.594Z,55.10
2018-09-20T00:21:43.870Z,55.20
2018-09-20T00:24:12.149Z,55.10
2018-09-20T00:26:40.424Z,55.20
2018-09-20T00:29:08.710Z,55.20
2018-09-20T00:31:36.982Z,55.20
2018-09-20T00:34:05.389Z,55.20
2018-09-20T00:36:33.660Z,55.00
2018-09-20T00:39:02.091Z,55.30
2018-09-20T00:41:30.361Z,55.20
2018-09-20T00:43:58.673Z,55.30
2018-09-20T00:46:26.944Z,55.30
2018-09-20T00:48:56.216Z,55.30
2018-09-20T00:51:24.567Z,55.40
2018-09-20T00:53:52.880Z,55.40
2018-09-20T00:56:21.163Z,55.40
2018-09-20T00:58:49.461Z,55.40
2018-09-20T01:01:17.765Z,55.40
2018-09-20T01:03:46.059Z,55.30
2018-09-20T01:06:14.434Z,55.40
2018-09-20T01:08:42.700Z,55.40
2018-09-20T01:11:10.981Z,55.40
2018-09-20T01:13:39.261Z,55.40
2018-09-20T01:16:07.722Z,55.50
2018-09-20T01:18:36.044Z,55.40
2018-09-20T01:21:04.469Z,55.40
2018-09-20T01:23:32.857Z,55.50
2018-09-20T01:26:01.157Z,55.50
2018-09-20T01:28:29.424Z,55.40
2018-09-20T01:30:57.683Z,55.40
2018-09-20T01:33:25.969Z,55.50
2018-09-20T01:35:54.274Z,55.50
2018-09-20T01:38:22.561Z,55.50
2018-09-20T01:40:50.797Z,55.50
2018-09-20T01:43:19.105Z,55.50
2018-09-20T01:45:47.374Z,55.60
2018-09-20T01:48:15.651Z,55.60
2018-09-20T01:50:43.933Z,55.50
2018-09-20T01:53:12.210Z,55.60
2018-09-20T01:55:40.484Z,55.70
2018-09-20T01:58:08.768Z,55.60
2018-09-20T02:00:37.037Z,55.70
2018-09-20T02:03:05.345Z,55.70
2018-09-20T02:05:33.641Z,55.70
2018-09-20T02:08:02.009Z,55.70
2018-09-20T02:10:30.293Z,55.70
2018-09-20T02:12:58.565Z,55.70
2018-09-20T02:15:26.912Z,55.80
2018-09-20T02:17:55.183Z,55.80
2018-09-20T02:20:23.664Z,55.80
2018-09-20T02:22:51.950Z,55.70
2018-09-20T02:25:20.192Z,55.70
2018-09-20T02:27:48.477Z,55.70
2018-09-20T02:30:16.772Z,55.70
2018-09-20T02:32:45.061Z,55.80
2018-09-20T02:35:13.325Z,55.70
2018-09-20T02:37:41.604Z,55.70
2018-09-20T02:40:09.902Z,55.70
2018-09-20T02:42:38.187Z,55.70
2018-09-20T02:45:06.528Z,55.80
2018-09-20T02:47:34.823Z,55.70
2018-09-20T02:50:03.098Z,55.80
2018-09-20T02:52:31.366Z,55.70
2018-09-20T02:54:59.696Z,56.30
2018-09-20T02:57:28.014Z,55.70
2018-09-20T02:59:56.308Z,55.70
2018-09-20T03:02:24.602Z,55.70
2018-09-20T03:04:52.885Z,55.80
2018-09-20T03:07:21.216Z,55.80
2018-09-20T03:09:49.486Z,55.80
2018-09-20T03:12:17.781Z,55.80
2018-09-20T03:14:46.034Z,55.80
2018-09-20T03:17:14.335Z,55.80
2018-09-20T03:19:42.645Z,55.80
2018-09-20T03:22:10.924Z,55.80
2018-09-20T03:24:41.113Z,55.80
2018-09-20T03:27:09.373Z,55.80
2018-09-20T03:29:37.681Z,55.80
2018-09-20T03:32:05.980Z,55.80
2018-09-20T03:34:34.240Z,55.70
2018-09-20T03:37:02.531Z,55.70
2018-09-20T03:39:30.781Z,55.70
2018-09-20T03:41:59.091Z,55.70
2018-09-20T03:44:27.465Z,55.80
2018-09-20T03:46:55.958Z,55.80
2018-09-20T03:49:24.221Z,55.80
2018-09-20T03:51:52.519Z,55.80
2018-09-20T03:54:20.838Z,55.90
2018-09-20T03:56:49.077Z,55.90
2018-09-20T03:59:17.366Z,55.90
2018-09-20T04:01:45.610Z,55.90
2018-09-20T04:04:13.860Z,56.00
2018-09-20T04:06:42.174Z,55.90
2018-09-20T04:09:11.734Z,56.00
2018-09-20T04:11:40.381Z,56.00
2018-09-20T04:14:09.006Z,56.00
2018-09-20T04:16:37.478Z,55.90
2018-09-20T04:19:05.770Z,55.90
2018-09-20T04:21:35.041Z,55.90
2018-09-20T04:24:04.675Z,56.00
2018-09-20T04:26:33.170Z,56.00
2018-09-20T04:29:01.728Z,56.00
2018-09-20T04:31:30.629Z,56.00
2018-09-20T04:33:59.992Z,56.00
2018-09-20T04:36:28.533Z,56.00
2018-09-20T04:38:56.855Z,56.00
2018-09-20T04:41:25.148Z,56.00
2018-09-20T04:43:53.527Z,56.10
2018-09-20T04:46:21.984Z,56.10
2018-09-20T04:48:50.261Z,56.10
2018-09-20T04:51:18.562Z,56.00
2018-09-20T04:53:46.867Z,56.10
2018-09-20T04:56:15.169Z,56.10
2018-09-20T04:58:43.447Z,56.10
2018-09-20T05:01:11.703Z,56.00
2018-09-20T05:03:39.995Z,56.10
2018-09-20T05:06:08.280Z,56.00
2018-09-20T05:08:36.572Z,56.10
2018-09-20T05:11:04.828Z,56.20
2018-09-20T05:13:33.086Z,56.20
2018-09-20T05:16:01.364Z,56.20
2018-09-20T05:18:29.637Z,56.20
2018-09-20T05:20:57.926Z,56.20
2018-09-20T05:23:26.230Z,56.20
2018-09-20T05:25:54.479Z,56.20
2018-09-20T05:28:22.733Z,56.20
2018-09-20T05:30:50.991Z,56.20
2018-09-20T05:33:19.307Z,56.20
2018-09-20T05:35:47.553Z,56.20
2018-09-20T05:38:15.818Z,56.10
2018-09-20T05:40:44.098Z,56.20
2018-09-20T05:43:12.326Z,56.70
2018-09-20T05:45:40.610Z,56.20
2018-09-20T05:48:08.924Z,56.20
2018-09-20T05:50:37.196Z,56.20
2018-09-20T05:53:05.780Z,56.20
2018-09-20T05:55:34.061Z,56.10
2018-09-20T05:58:02.296Z,56.00
2018-09-20T06:00:30.603Z,56.00
2018-09-20T06:02:58.865Z,56.70
2018-09-20T06:05:27.165Z,56.20
2018-09-20T06:07:55.420Z,56.10
2018-09-20T06:10:23.694Z,56.00
2018-09-20T06:12:51.941Z,56.00
2018-09-20T06:15:20.264Z,55.90
2018-09-20T06:17:48.509Z,55.80
2018-09-20T06:20:16.837Z,55.70
2018-09-20T06:22:45.161Z,55.60
2018-09-20T06:25:13.425Z,56.10
2018-09-20T06:27:41.772Z,55.40
2018-09-20T06:30:10.047Z,55.50
2018-09-20T06:32:38.333Z,55.50
2018-09-20T06:35:06.764Z,55.60
2018-09-20T06:37:35.000Z,55.70
2018-09-20T06:40:03.304Z,55.90
2018-09-20T06:42:31.582Z,55.90
2018-09-20T06:45:00.006Z,56.00
2018-09-20T06:47:28.257Z,56.00
2018-09-20T06:49:56.561Z,56.50
2018-09-20T06:52:24.817Z,56.30
2018-09-20T06:54:53.112Z,56.30
2018-09-20T07:00:20.686Z,56.10
2018-09-20T07:02:48.994Z,56.80
2018-09-20T07:05:17.265Z,56.10
2018-09-20T07:07:45.537Z,56.00
2018-09-20T07:10:13.814Z,55.90
2018-09-20T07:12:42.096Z,55.90
2018-09-20T07:15:10.586Z,55.90
2018-09-20T07:17:38.852Z,55.80
2018-09-20T07:20:07.405Z,55.80
2018-09-20T07:22:35.685Z,55.70
2018-09-20T07:25:04.020Z,55.80
2018-09-20T07:27:32.268Z,55.80
2018-09-20T07:30:00.550Z,55.50
2018-09-20T07:32:28.853Z,55.60
2018-09-20T07:34:57.114Z,55.90
2018-09-20T07:37:25.413Z,55.70
2018-09-20T07:39:53.717Z,55.90
2018-09-20T07:42:21.990Z,56.20
2018-09-20T07:44:50.269Z,55.60
2018-09-20T07:47:18.565Z,55.50
2018-09-20T07:49:46.841Z,55.50
2018-09-20T07:52:15.171Z,55.40
2018-09-20T07:54:43.477Z,55.40
2018-09-20T07:57:11.779Z,57.20
2018-09-20T07:59:40.037Z,55.40
2018-09-20T08:02:08.361Z,55.30
2018-09-20T08:04:36.617Z,55.20
2018-09-20T08:07:04.901Z,55.30
2018-09-20T08:09:33.165Z,55.00
2018-09-20T08:12:01.449Z,55.00
2018-09-20T08:14:29.784Z,54.80
2018-09-20T08:16:58.062Z,54.80
2018-09-20T08:19:26.372Z,54.70
2018-09-20T08:21:54.905Z,54.60
2018-09-20T08:24:23.161Z,54.50
2018-09-20T08:26:51.455Z,55.00
2018-09-20T08:29:19.748Z,54.40
2018-09-20T08:31:48.001Z,54.20
2018-09-20T08:34:16.301Z,54.10
2018-09-20T08:36:44.569Z,54.00
2018-09-20T08:39:13.390Z,53.80
2018-09-20T08:41:41.639Z,54.70
2018-09-20T08:44:09.970Z,55.00
2018-09-20T08:46:38.281Z,54.70
2018-09-20T08:49:06.557Z,56.60
2018-09-20T08:51:34.834Z,54.10
2018-09-20T08:54:03.109Z,55.00
2018-09-20T08:56:31.441Z,55.90
2018-09-20T08:58:59.710Z,56.30
2018-09-20T09:01:27.973Z,54.10
2018-09-20T09:03:56.268Z,54.00
2018-09-20T09:06:24.546Z,53.60
2018-09-20T09:08:52.837Z,53.40
2018-09-20T09:11:21.126Z,53.30
2018-09-20T09:13:49.422Z,53.20
2018-09-20T09:16:17.683Z,55.10
2018-09-20T09:18:46.013Z,54.10
2018-09-20T09:21:14.277Z,54.10
2018-09-20T09:23:42.561Z,54.00
2018-09-20T09:26:10.882Z,52.90
2018-09-20T09:28:39.179Z,54.10
2018-09-20T09:31:07.430Z,53.50
2018-09-20T09:33:35.709Z,52.80
2018-09-20T09:36:03.965Z,52.60
2018-09-20T09:38:32.274Z,53.10
2018-09-20T09:41:00.544Z,53.10
2018-09-20T09:43:29.024Z,52.20
2018-09-20T09:45:57.513Z,53.40
2018-09-20T09:48:25.782Z,52.80
2018-09-20T09:50:54.038Z,52.00
2018-09-20T09:53:22.324Z,52.20
2018-09-20T09:55:50.585Z,52.50
2018-09-20T09:58:18.870Z,52.00
2018-09-20T10:00:47.183Z,52.10
2018-09-20T10:03:15.432Z,52.00
2018-09-20T10:05:43.719Z,52.90
2018-09-20T10:08:12.001Z,52.20
2018-09-20T10:10:40.329Z,52.40
2018-09-20T10:13:08.592Z,52.20
2018-09-20T10:15:36.852Z,52.00
2018-09-20T10:18:05.152Z,51.40
2018-09-20T10:20:33.500Z,51.50
2018-09-20T10:23:01.769Z,51.60
2018-09-20T10:25:30.048Z,51.90
2018-09-20T10:27:58.341Z,51.10
2018-09-20T10:30:26.617Z,51.00
2018-09-20T10:32:54.942Z,51.00
2018-09-20T10:35:23.221Z,51.30
2018-09-20T10:37:51.514Z,50.80
2018-09-20T10:40:19.790Z,50.90
2018-09-20T10:42:48.066Z,50.70
2018-09-20T10:45:16.401Z,50.40
2018-09-20T10:47:44.745Z,50.80
2018-09-20T10:50:13.015Z,50.60
2018-09-20T10:52:41.294Z,50.60
2018-09-20T10:55:09.592Z,50.50
2018-09-20T10:57:37.873Z,50.20
2018-09-20T11:00:06.230Z,50.20
2018-09-20T11:02:34.534Z,50.30
2018-09-20T11:05:03.010Z,50.30
2018-09-20T11:07:31.306Z,49.90
2018-09-20T11:09:59.571Z,50.30
2018-09-20T11:12:27.881Z,50.20
2018-09-20T11:14:56.225Z,49.50
2018-09-20T11:17:24.528Z,50.30
2018-09-20T11:19:52.802Z,49.20
2018-09-20T11:22:21.094Z,49.70
2018-09-20T11:24:49.347Z,50.10
2018-09-20T11:27:17.649Z,49.60
2018-09-20T11:29:45.927Z,50.00
2018-09-20T11:32:14.225Z,50.10
2018-09-20T11:34:42.514Z,50.00
2018-09-20T11:37:10.799Z,49.90
2018-09-20T11:39:39.085Z,49.20
2018-09-20T11:42:07.397Z,49.70
2018-09-20T11:44:35.677Z,50.10
2018-09-20T11:47:03.949Z,50.10
2018-09-20T11:49:32.226Z,49.20
2018-09-20T11:52:00.573Z,49.90
2018-09-20T11:54:29.151Z,49.90
2018-09-20T11:56:57.427Z,50.00
2018-09-20T11:59:25.825Z,49.20
2018-09-20T12:01:54.620Z,49.10
2018-09-20T12:04:22.940Z,50.10
2018-09-20T12:06:51.321Z,49.90
2018-09-20T12:09:19.637Z,49.80
2018-09-20T12:11:47.937Z,49.70
2018-09-20T12:14:16.409Z,49.50
2018-09-20T12:16:44.762Z,49.50
2018-09-20T12:19:13.155Z,49.00
2018-09-20T12:21:41.696Z,48.00
2018-09-20T12:24:10.025Z,48.10
2018-09-20T12:26:38.372Z,48.70
2018-09-20T12:29:06.670Z,47.20
2018-09-20T12:31:35.031Z,49.30
2018-09-20T12:34:04.124Z,49.80
2018-09-20T12:36:32.441Z,49.00
2018-09-20T12:39:00.826Z,49.00
2018-09-20T12:41:29.125Z,48.60
2018-09-20T12:43:57.479Z,47.40
2018-09-20T12:46:25.749Z,47.80
2018-09-20T12:48:54.048Z,47.20
2018-09-20T12:51:22.308Z,47.80
2018-09-20T12:53:51.242Z,45.80
2018-09-20T12:56:19.533Z,47.30
2018-09-20T12:58:50.402Z,48.40
2018-09-20T13:01:19.784Z,48.00
2018-09-20T13:03:48.488Z,47.00
2018-09-20T13:06:17.197Z,48.30
2018-09-20T13:08:45.487Z,48.40
2018-09-20T13:11:13.773Z,47.10
2018-09-20T13:13:42.319Z,46.30
2018-09-20T13:16:10.825Z,45.80
2018-09-20T13:18:39.108Z,45.60
2018-09-20T13:21:07.725Z,47.50
2018-09-20T13:23:36.152Z,43.10
2018-09-20T13:26:04.449Z,43.50
2018-09-20T13:28:32.740Z,45.40
2018-09-20T13:31:01.027Z,47.10
2018-09-20T13:33:29.317Z,48.00
2018-09-20T13:35:57.592Z,47.70
2018-09-20T13:38:25.900Z,48.00
2018-09-20T13:40:54.221Z,46.20
2018-09-20T13:43:22.544Z,44.20
2018-09-20T13:45:50.870Z,47.60
2018-09-20T13:48:19.157Z,44.60
2018-09-20T13:50:47.505Z,47.50
2018-09-20T13:53:16.609Z,46.60
2018-09-20T13:55:45.164Z,46.30
2018-09-20T13:58:14.677Z,44.80
2018-09-20T14:00:42.989Z,46.60
2018-09-20T14:03:11.283Z,46.90
2018-09-20T14:05:39.733Z,47.10
2018-09-20T14:08:08.679Z,47.10
2018-09-20T14:10:37.262Z,47.10
2018-09-20T14:13:06.240Z,47.00
2018-09-20T14:15:35.133Z,46.10
2018-09-20T14:18:04.062Z,45.50
2018-09-20T14:20:32.345Z,43.90
2018-09-20T14:23:00.609Z,46.30
2018-09-20T14:25:30.143Z,47.00
2018-09-20T14:27:59.082Z,44.10
2018-09-20T14:30:27.468Z,43.90
2018-09-20T14:32:56.010Z,42.50
2018-09-20T14:35:24.306Z,46.60
2018-09-20T14:37:52.593Z,45.10
2018-09-20T14:40:20.877Z,45.80
2018-09-20T14:42:49.163Z,44.30
2018-09-20T14:45:17.527Z,47.10
2018-09-20T14:47:45.795Z,47.50
2018-09-20T14:50:14.789Z,44.40
2018-09-20T14:52:43.429Z,47.10
2018-09-20T14:55:11.726Z,45.90
2018-09-20T14:57:41.161Z,45.40
2018-09-20T15:00:09.489Z,47.30
2018-09-20T15:02:37.858Z,44.50
2018-09-20T15:05:06.380Z,45.10
2018-09-20T15:07:34.697Z,42.70
2018-09-20T15:10:02.981Z,42.90
2018-09-20T15:12:32.373Z,41.60
2018-09-20T15:15:00.637Z,41.30
2018-09-20T15:17:28.896Z,40.30
2018-09-20T15:19:57.306Z,41.50
2018-09-20T15:22:25.549Z,42.80
2018-09-20T15:24:53.841Z,42.70
2018-09-20T15:27:22.117Z,42.90
2018-09-20T15:29:50.481Z,42.80
2018-09-20T15:32:18.930Z,41.50
2018-09-20T15:34:47.338Z,44.00
2018-09-20T15:37:15.656Z,43.40
2018-09-20T15:39:43.937Z,42.70
2018-09-20T15:42:12.209Z,43.00
2018-09-20T15:44:40.490Z,44.10
2018-09-20T15:47:08.749Z,44.60
2018-09-20T15:49:37.037Z,43.70
2018-09-20T15:52:05.336Z,42.00
2018-09-20T15:54:33.907Z,44.00
2018-09-20T15:57:03.292Z,43.60
2018-09-20T15:59:32.022Z,43.80
2018-09-20T16:02:00.297Z,43.90
2018-09-20T16:04:28.570Z,44.30
2018-09-20T16:06:56.861Z,43.80
2018-09-20T16:09:25.245Z,45.30
2018-09-20T16:11:53.529Z,43.30
2018-09-20T16:14:21.881Z,44.60
2018-09-20T16:16:50.399Z,45.00
2018-09-20T16:19:18.678Z,45.30
2018-09-20T16:21:46.968Z,45.10
2018-09-20T16:24:15.213Z,46.50
2018-09-20T16:26:43.522Z,46.00
2018-09-20T16:29:35.306Z,42.30
2018-09-20T16:32:15.303Z,43.60
2018-09-20T16:34:59.041Z,45.00
2018-09-20T16:38:39.158Z,44.70
2018-09-20T16:41:09.700Z,46.40
2018-09-20T16:43:37.998Z,45.20
2018-09-20T16:46:06.354Z,46.30
2018-09-20T16:48:34.666Z,45.30
2018-09-20T16:51:02.976Z,46.40
2018-09-20T16:53:31.285Z,46.00
2018-09-20T16:55:59.590Z,46.50
2018-09-20T16:58:27.887Z,46.70
2018-09-20T17:00:56.185Z,45.00
2018-09-20T17:03:24.486Z,47.10
2018-09-20T17:05:52.810Z,43.20
2018-09-20T17:08:21.133Z,44.30
2018-09-20T17:10:49.395Z,45.70
2018-09-20T17:13:18.499Z,47.00
2018-09-20T17:15:46.741Z,46.20
2018-09-20T17:18:15.073Z,45.90
2018-09-20T17:20:43.365Z,46.80
2018-09-20T17:23:11.621Z,46.60
2018-09-20T17:25:39.951Z,47.30
2018-09-20T17:28:08.233Z,46.40
2018-09-20T17:30:36.553Z,47.50
2018-09-20T17:33:04.873Z,46.70
2018-09-20T17:35:33.470Z,45.70
2018-09-20T17:38:03.922Z,47.20
2018-09-20T17:40:32.970Z,45.60
2018-09-20T17:43:06.838Z,46.70
2018-09-20T17:45:35.182Z,45.20
2018-09-20T17:48:03.547Z,46.70
2018-09-20T17:50:31.846Z,46.70
2018-09-20T17:53:00.626Z,47.60
2018-09-20T17:55:29.492Z,46.70
2018-09-20T17:57:58.046Z,46.70
2018-09-20T18:00:26.405Z,48.70
2018-09-20T18:02:55.122Z,47.90
2018-09-20T18:05:24.044Z,48.30
2018-09-20T18:07:52.932Z,48.90
2018-09-20T18:10:21.253Z,47.90
2018-09-20T18:12:49.559Z,49.30
2018-09-20T18:15:17.882Z,48.90
2018-09-20T18:17:46.416Z,49.20
2018-09-20T18:20:14.641Z,49.20
2018-09-20T18:22:42.989Z,49.20
2018-09-20T18:25:11.397Z,49.40
2018-09-20T18:27:39.776Z,49.70
2018-09-20T18:30:08.125Z,49.20
2018-09-20T18:32:36.447Z,49.40
2018-09-20T18:35:04.866Z,49.60
2018-09-20T18:37:34.734Z,48.50
2018-09-20T18:40:03.052Z,49.50
2018-09-20T18:42:31.373Z,49.60
2018-09-20T18:44:59.650Z,50.30
2018-09-20T18:47:27.941Z,49.80
2018-09-20T18:49:56.218Z,49.80
2018-09-20T18:52:24.500Z,49.80
2018-09-20T18:54:52.810Z,49.80
2018-09-20T18:57:21.102Z,49.90
2018-09-20T18:59:49.361Z,49.90
2018-09-20T19:02:17.703Z,49.90
2018-09-20T19:04:46.021Z,50.00
2018-09-20T19:07:14.347Z,50.10
2018-09-20T19:09:42.613Z,50.10
2018-09-20T19:12:10.876Z,50.10
2018-09-20T19:14:40.217Z,50.20
2018-09-20T19:17:08.771Z,50.20
2018-09-20T19:19:37.088Z,50.30
2018-09-20T19:22:05.422Z,50.20
2018-09-20T19:24:33.677Z,50.30
2018-09-20T19:27:01.959Z,50.30
2018-09-20T19:29:30.627Z,50.40
2018-09-20T19:31:58.963Z,50.50
2018-09-20T19:34:27.268Z,50.50
2018-09-20T19:36:55.661Z,50.50
2018-09-20T19:39:23.984Z,50.60
2018-09-20T19:41:52.302Z,50.60
2018-09-20T19:44:20.606Z,50.70
2018-09-20T19:46:48.979Z,50.80
2018-09-20T19:49:17.277Z,50.80
2018-09-20T19:51:45.607Z,50.90
2018-09-20T19:54:13.840Z,51.00
2018-09-20T19:56:42.449Z,51.10
2018-09-20T19:59:10.764Z,51.00
2018-09-20T20:01:39.009Z,51.20
2018-09-20T20:04:07.302Z,51.20
2018-09-20T20:06:35.880Z,51.20
2018-09-20T20:09:07.938Z,51.30
2018-09-20T20:11:36.227Z,51.30
2018-09-20T20:14:04.691Z,51.40
2018-09-20T20:16:32.956Z,51.40
2018-09-20T20:19:01.277Z,51.50
2018-09-20T20:21:29.573Z,51.50
2018-09-20T20:23:57.866Z,51.60
2018-09-20T20:26:26.148Z,51.60
2018-09-20T20:28:54.773Z,51.60
2018-09-20T20:31:23.125Z,51.70
2018-09-20T20:33:51.420Z,51.70
2018-09-20T20:36:19.798Z,51.70
2018-09-20T20:38:48.075Z,52.40
2018-09-20T20:41:16.348Z,51.80
2018-09-20T20:43:44.656Z,51.80
2018-09-20T20:46:13.174Z,51.80
2018-09-20T20:48:41.455Z,51.90
2018-09-20T20:51:09.747Z,51.90
2018-09-20T20:53:38.337Z,51.90
2018-09-20T20:56:06.701Z,51.90
2018-09-20T20:58:35.023Z,52.00
2018-09-20T21:01:03.217Z,52.00
2018-09-20T21:03:31.497Z,52.00
2018-09-20T21:05:59.914Z,52.10
2018-09-20T21:08:28.242Z,52.10
2018-09-20T21:10:56.571Z,52.10
2018-09-20T21:13:24.829Z,52.10
2018-09-20T21:15:53.167Z,52.20
2018-09-20T21:18:21.474Z,52.10
2018-09-20T21:20:49.797Z,52.20
2018-09-20T21:23:18.058Z,52.20
2018-09-20T21:25:46.434Z,52.30
2018-09-20T21:28:14.702Z,52.30
2018-09-20T21:30:42.969Z,52.30
2018-09-20T21:33:11.256Z,52.40
2018-09-20T21:35:39.541Z,52.30
2018-09-20T21:38:07.810Z,52.40
2018-09-20T21:40:36.087Z,52.40
2018-09-20T21:43:04.368Z,52.40
2018-09-20T21:45:32.662Z,52.50
2018-09-20T21:48:00.953Z,52.50
2018-09-20T21:50:29.263Z,52.60
2018-09-20T21:52:57.595Z,52.50
2018-09-20T21:55:25.870Z,52.60
2018-09-20T21:57:54.125Z,52.70
2018-09-20T22:00:22.475Z,52.70
2018-09-20T22:02:55.939Z,52.70
2018-09-20T22:05:24.241Z,52.70
2018-09-20T22:07:52.524Z,53.40
2018-09-20T22:10:20.829Z,52.70
2018-09-20T22:12:49.167Z,52.70
2018-09-20T22:15:21.792Z,53.40
2018-09-20T22:17:50.237Z,52.80
2018-09-20T22:20:18.640Z,52.80
2018-09-20T22:22:46.949Z,52.90
2018-09-20T22:25:15.217Z,52.90
2018-09-20T22:27:43.516Z,53.00
2018-09-20T22:30:11.789Z,53.00
2018-09-20T22:32:40.097Z,52.90
2018-09-20T22:35:08.433Z,53.00
2018-09-20T22:37:36.728Z,53.00
2018-09-20T22:40:05.265Z,53.00
2018-09-20T22:42:33.546Z,53.00
2018-09-20T22:45:02.456Z,53.00
2018-09-20T22:47:30.934Z,53.10
2018-09-20T22:49:59.233Z,53.10
2018-09-20T22:52:27.529Z,53.00
2018-09-20T22:54:55.849Z,53.10
2018-09-20T22:57:24.159Z,53.10
2018-09-20T22:59:52.405Z,53.10
2018-09-20T23:02:20.706Z,53.10
2018-09-20T23:04:49.025Z,53.20
2018-09-20T23:07:17.305Z,53.20
2018-09-20T23:09:45.605Z,53.30
2018-09-20T23:12:13.881Z,53.20
2018-09-20T23:14:42.166Z,53.20
2018-09-20T23:17:10.484Z,53.30
2018-09-20T23:19:38.787Z,53.30
2018-09-20T23:22:07.092Z,53.30
2018-09-20T23:24:35.365Z,53.30
2018-09-20T23:27:03.676Z,53.40
2018-09-20T23:29:31.982Z,53.30
2018-09-20T23:32:00.310Z,53.30
2018-09-20T23:34:28.568Z,53.90
2018-09-20T23:36:56.872Z,53.30
2018-09-20T23:39:25.148Z,53.30
2018-09-20T23:41:53.490Z,53.30
2018-09-20T23:44:21.761Z,53.40
2018-09-20T23:46:50.064Z,53.30
2018-09-20T23:49:18.386Z,53.30
2018-09-20T23:51:46.686Z,53.40
2018-09-20T23:54:14.993Z,53.50
2018-09-20T23:56:43.268Z,53.50
2018-09-20T23:59:11.553Z,53.50
